Time;durP1;ratioP1;P1;durP2;ratioP2;P2;SDS_P1;SDS_P2;PMS_P1;PMS_P2;Temp;Humidity;BMP_temperature;BMP_pressure;BME280_temperature;BME280_humidity;BME280_pressure;Samples;Min_cycle;Max_cycle;Signal;HPM_P1;HPM_P2
2023/10/08 00:01:33;;;;;;;4.75;3.03;;;19.20;77.50;;;;;;10493523;28;20021;-59
2023/10/08 00:06:34;;;;;;;4.78;3.03;;;19.10;77.50;;;;;;10493131;28;20036;-59
2023/10/08 00:11:40;;;;;;;3.97;2.88;;;19.10;77.50;;;;;;10493039;28;20431;-59
2023/10/08 00:16:40;;;;;;;6.00;3.53;;;19.20;77.50;;;;;;10492615;28;20043;-59
2023/10/08 00:21:44;;;;;;;5.65;3.40;;;19.10;77.50;;;;;;10492786;28;20032;-59
2023/10/08 00:26:46;;;;;;;5.03;3.20;;;19.20;77.60;;;;;;10492433;28;20024;-59
2023/10/08 00:31:49;;;;;;;5.18;3.42;;;19.20;77.60;;;;;;10492568;28;20036;-59
2023/10/08 00:36:50;;;;;;;5.32;3.80;;;19.20;77.60;;;;;;10474255;28;20040;-59
2023/10/08 00:41:58;;;;;;;8.15;3.28;;;19.10;77.60;;;;;;10474458;28;20043;-59
2023/10/08 00:47:00;;;;;;;5.70;3.55;;;19.10;77.50;;;;;;10492150;28;20032;-58
2023/10/08 00:57:11;;;;;;;3.33;2.50;;;19.20;77.70;;;;;;10474150;28;20078;-59
2023/10/08 01:02:15;;;;;;;5.47;3.13;;;19.20;77.60;;;;;;10480830;28;20103;-59
2023/10/08 01:07:16;;;;;;;4.55;3.03;;;19.10;77.50;;;;;;10491319;28;20529;-58
2023/10/08 01:12:27;;;;;;;4.07;3.03;;;19.10;77.50;;;;;;10473822;28;20523;-59
2023/10/08 01:17:32;;;;;;;5.32;3.30;;;19.10;77.60;;;;;;10491193;28;20056;-59
2023/10/08 01:22:33;;;;;;;5.13;3.63;;;19.10;77.50;;;;;;10491424;28;20060;-59
2023/10/08 01:27:37;;;;;;;6.28;3.47;;;19.10;77.50;;;;;;10491291;28;20025;-59
2023/10/08 01:32:38;;;;;;;6.03;3.13;;;19.10;77.60;;;;;;10491010;28;20037;-59
2023/10/08 01:37:40;;;;;;;6.18;3.75;;;19.10;77.50;;;;;;10490721;28;20025;-59
2023/10/08 01:42:40;;;;;;;5.22;3.88;;;19.10;77.60;;;;;;10491189;28;20359;-59
2023/10/08 01:47:43;;;;;;;5.95;3.80;;;19.10;77.60;;;;;;10490544;28;20090;-59
2023/10/08 01:52:46;;;;;;;6.38;3.70;;;19.10;77.60;;;;;;10491069;28;20567;-59
2023/10/08 01:57:53;;;;;;;7.07;3.78;;;19.10;77.70;;;;;;10490320;28;20035;-59
2023/10/08 02:02:54;;;;;;;5.30;2.72;;;19.10;77.60;;;;;;10490709;28;20399;-58
2023/10/08 02:07:58;;;;;;;5.03;3.25;;;19.10;77.50;;;;;;10489857;28;20069;-59
2023/10/08 02:12:59;;;;;;;5.55;3.22;;;19.10;77.50;;;;;;10497487;28;20775;-59
2023/10/08 02:18:00;;;;;;;5.95;3.40;;;19.10;77.50;;;;;;10497340;28;20087;-59
2023/10/08 02:23:01;;;;;;;4.85;3.97;;;19.10;77.60;;;;;;10497608;28;20051;-59
2023/10/08 02:28:03;;;;;;;5.40;3.28;;;19.10;77.60;;;;;;10497982;28;20028;-58
2023/10/08 02:33:13;;;;;;;4.50;3.15;;;19.10;77.60;;;;;;10498022;28;20043;-59
2023/10/08 02:38:17;;;;;;;4.78;2.75;;;19.10;77.60;;;;;;10497261;28;20111;-59
2023/10/08 02:43:17;;;;;;;5.43;3.08;;;19.10;77.60;;;;;;10479569;28;20472;-59
2023/10/08 02:48:20;;;;;;;4.65;3.33;;;19.10;77.60;;;;;;10478681;28;20086;-60
2023/10/08 02:53:25;;;;;;;5.88;2.40;;;19.10;77.60;;;;;;10496608;28;20368;-59
2023/10/08 02:58:27;;;;;;;4.43;3.17;;;19.10;77.60;;;;;;10470536;28;20041;-60
2023/10/08 03:03:29;;;;;;;3.70;2.40;;;19.10;77.60;;;;;;10495731;28;20081;-59
2023/10/08 03:08:31;;;;;;;10.18;3.63;;;19.10;77.70;;;;;;10495929;28;20060;-58
2023/10/08 03:13:31;;;;;;;4.05;2.67;;;19.10;77.70;;;;;;10495377;28;20036;-58
2023/10/08 03:18:42;;;;;;;4.22;2.60;;;19.10;77.80;;;;;;10495421;28;20045;-59
2023/10/08 03:23:47;;;;;;;7.93;3.47;;;19.10;77.70;;;;;;10494972;28;20025;-59
2023/10/08 03:28:57;;;;;;;4.55;2.95;;;19.10;77.70;;;;;;10495262;28;20830;-58
2023/10/08 03:33:58;;;;;;;4.85;2.67;;;19.10;77.60;;;;;;10494910;28;20025;-59
2023/10/08 03:38:58;;;;;;;4.18;2.90;;;19.10;77.60;;;;;;10476713;28;20028;-60
2023/10/08 03:44:05;;;;;;;4.18;2.55;;;19.10;77.70;;;;;;10494873;28;20040;-59
2023/10/08 03:49:12;;;;;;;3.15;2.33;;;19.10;77.60;;;;;;10493977;28;20060;-59
2023/10/08 03:54:48;;;;;;;6.15;3.47;;;19.10;77.70;;;;;;10476982;28;20081;-59
2023/10/08 03:59:41;;;;;;;5.80;3.40;;;19.10;77.70;;;;;;10489194;28;20067;-58
2023/10/08 04:04:49;;;;;;;6.18;2.92;;;19.10;77.70;;;;;;10494027;28;20046;-59
2023/10/08 04:09:52;;;;;;;6.70;3.67;;;19.10;77.70;;;;;;10493177;28;20553;-59
2023/10/08 04:14:55;;;;;;;3.80;3.08;;;19.10;77.70;;;;;;10493361;28;20052;-59
2023/10/08 04:19:58;;;;;;;4.55;2.78;;;19.10;77.60;;;;;;10492961;28;20032;-58
2023/10/08 04:25:05;;;;;;;5.38;3.53;;;19.10;77.70;;;;;;10491712;28;20040;-60
2023/10/08 04:30:10;;;;;;;5.10;3.03;;;19.10;77.90;;;;;;10488794;28;20029;-59
2023/10/08 04:35:14;;;;;;;5.78;3.92;;;19.10;77.90;;;;;;10489220;28;20027;-59
2023/10/08 04:40:16;;;;;;;5.43;3.75;;;19.10;78.00;;;;;;10487505;28;20457;-59
2023/10/08 04:45:19;;;;;;;4.47;3.50;;;19.10;77.90;;;;;;10492271;28;20102;-59
2023/10/08 04:50:21;;;;;;;5.43;3.63;;;19.10;78.50;;;;;;10487425;28;20074;-59
2023/10/08 04:55:28;;;;;;;5.85;4.13;;;19.10;77.80;;;;;;10481449;28;20028;-59
2023/10/08 05:00:43;;;;;;;20.08;5.97;;;19.10;77.80;;;;;;10491093;28;20116;-59
2023/10/08 05:11:24;;;;;;;20.15;5.68;;;19.20;78.20;;;;;;10491692;28;20115;-59
2023/10/08 05:16:52;;;;;;;21.17;5.53;;;19.20;78.30;;;;;;10491679;28;20059;-59
2023/10/08 05:22:01;;;;;;;20.30;7.13;;;19.20;78.20;;;;;;10491112;28;20028;-59
2023/10/08 05:27:37;;;;;;;17.42;10.82;;;19.20;78.50;;;;;;10490616;28;20033;-58
2023/10/08 05:32:44;;;;;;;23.20;7.43;;;19.30;78.90;;;;;;10488994;28;20075;-56
2023/10/08 05:37:52;;;;;;;21.52;9.93;;;19.30;78.30;;;;;;10486614;28;20081;-58
2023/10/08 05:43:01;;;;;;;22.52;9.10;;;19.40;78.80;;;;;;10491283;28;20052;-56
2023/10/08 05:48:13;;;;;;;22.00;7.60;;;19.40;78.70;;;;;;10496166;28;20055;-56
2023/10/08 05:53:29;;;;;;;18.50;9.35;;;19.40;78.90;;;;;;10499045;28;20032;-56
2023/10/08 05:58:45;;;;;;;22.65;8.02;;;19.50;78.80;;;;;;10487977;28;20057;-57
2023/10/08 06:04:00;;;;;;;22.08;7.93;;;19.60;78.80;;;;;;10496018;28;20029;-56
2023/10/08 06:09:21;;;;;;;25.90;7.78;;;19.60;78.90;;;;;;10497876;28;20396;-56
2023/10/08 06:14:42;;;;;;;17.30;7.38;;;19.60;78.80;;;;;;10494022;28;20056;-57
2023/10/08 06:19:43;;;;;;;22.05;7.00;;;19.50;78.70;;;;;;10491318;28;20487;-57
2023/10/08 06:24:43;;;;;;;24.10;7.70;;;19.50;78.80;;;;;;10496440;28;20065;-58
2023/10/08 06:29:44;;;;;;;28.13;7.85;;;19.50;78.50;;;;;;10497115;28;20091;-56
2023/10/08 06:34:45;;;;;;;19.10;7.03;;;19.50;78.90;;;;;;10488324;28;20043;-58
2023/10/08 06:39:48;;;;;;;20.70;7.20;;;19.50;79.10;;;;;;10496699;28;20036;-58
2023/10/08 06:44:50;;;;;;;16.92;6.65;;;19.50;79.20;;;;;;10496125;28;20040;-57
2023/10/08 06:49:51;;;;;;;23.08;7.43;;;19.40;79.30;;;;;;10497080;28;20541;-56
2023/10/08 06:54:53;;;;;;;17.35;6.32;;;19.40;79.30;;;;;;10493766;28;20036;-58
2023/10/08 06:59:53;;;;;;;18.80;6.25;;;19.40;79.20;;;;;;10496353;28;20024;-57
2023/10/08 07:04:54;;;;;;;18.70;5.55;;;19.30;79.20;;;;;;10495520;28;20040;-57
2023/10/08 07:09:56;;;;;;;11.90;5.70;;;19.30;79.10;;;;;;10489480;28;20029;-56
2023/10/08 07:14:58;;;;;;;14.32;6.05;;;19.30;79.00;;;;;;10466980;28;20707;-57
2023/10/08 07:19:59;;;;;;;11.13;5.05;;;19.20;78.90;;;;;;10495169;28;20391;-57
2023/10/08 07:25:01;;;;;;;12.80;5.68;;;19.20;79.00;;;;;;10492381;28;20035;-57
2023/10/08 07:30:02;;;;;;;16.85;6.25;;;19.20;78.70;;;;;;10494730;28;20031;-57
2023/10/08 07:35:51;;;;;;;16.10;5.68;;;19.30;78.20;;;;;;10494835;28;20024;-58
2023/10/08 07:40:30;;;;;;;16.73;5.60;;;19.50;78.00;;;;;;10472502;28;20040;-57
2023/10/08 07:45:35;;;;;;;18.02;5.65;;;19.60;77.80;;;;;;10476318;28;20024;-57
2023/10/08 07:50:41;;;;;;;28.83;6.20;;;19.70;78.40;;;;;;10493093;28;20062;-57
2023/10/08 07:55:43;;;;;;;19.83;4.53;;;19.60;79.40;;;;;;10492777;28;20042;-57
2023/10/08 08:00:56;;;;;;;15.95;4.70;;;19.50;80.50;;;;;;10486795;28;20078;-57
2023/10/08 08:05:58;;;;;;;12.50;3.85;;;19.40;80.60;;;;;;10480938;28;20028;-58
2023/10/08 08:11:05;;;;;;;12.15;4.85;;;19.40;80.50;;;;;;10491267;28;20032;-57
2023/10/08 08:16:18;;;;;;;13.93;4.10;;;19.30;80.50;;;;;;10490103;28;20041;-57
2023/10/08 08:21:19;;;;;;;10.20;4.05;;;19.30;80.50;;;;;;10492013;28;20043;-57
2023/10/08 08:26:26;;;;;;;11.60;4.20;;;19.30;80.40;;;;;;10491341;28;20380;-57
2023/10/08 08:31:31;;;;;;;10.82;4.10;;;19.20;80.30;;;;;;10492002;28;20099;-57
2023/10/08 08:36:32;;;;;;;9.30;3.70;;;19.20;80.30;;;;;;10473469;28;20056;-57
2023/10/08 08:41:37;;;;;;;8.13;4.60;;;19.20;80.20;;;;;;10488824;28;20035;-57
2023/10/08 08:46:39;;;;;;;8.27;3.97;;;19.20;80.20;;;;;;10488983;28;20039;-57
2023/10/08 08:51:42;;;;;;;8.82;3.22;;;19.20;80.20;;;;;;10490765;28;20158;-57
2023/10/08 08:56:43;;;;;;;10.25;3.35;;;19.20;80.10;;;;;;10473159;28;20116;-56
2023/10/08 09:01:45;;;;;;;10.75;3.65;;;19.20;79.80;;;;;;10469742;28;20494;-57
2023/10/08 09:06:46;;;;;;;12.20;3.47;;;19.20;79.60;;;;;;10469425;28;20058;-56
2023/10/08 09:11:46;;;;;;;16.42;4.80;;;19.20;79.30;;;;;;10488560;28;20045;-55
2023/10/08 09:16:48;;;;;;;12.77;4.25;;;19.30;79.30;;;;;;10486543;28;20491;-57
2023/10/08 09:22:10;;;;;;;11.75;3.95;;;19.30;79.40;;;;;;10490925;28;20467;-57
2023/10/08 09:27:15;;;;;;;14.20;4.28;;;19.30;79.40;;;;;;10489626;28;20032;-56
2023/10/08 09:32:25;;;;;;;16.13;4.80;;;19.40;79.70;;;;;;10471803;28;20029;-56
2023/10/08 09:37:26;;;;;;;16.70;4.82;;;19.40;79.50;;;;;;10490726;28;20062;-56
2023/10/08 09:42:29;;;;;;;7.60;3.78;;;19.50;79.50;;;;;;10471731;28;20086;-56
2023/10/08 09:47:34;;;;;;;21.70;4.90;;;19.50;79.30;;;;;;10489257;28;20104;-57
2023/10/08 09:52:57;;;;;;;14.18;5.00;;;19.50;79.30;;;;;;10470872;28;20032;-56
2023/10/08 09:57:57;;;;;;;22.08;4.88;;;19.50;79.60;;;;;;10477569;28;20033;-57
2023/10/08 10:03:01;;;;;;;15.38;4.15;;;19.50;79.70;;;;;;10488957;28;20048;-57
2023/10/08 10:08:05;;;;;;;23.42;5.78;;;19.60;79.80;;;;;;10489642;28;20378;-57
2023/10/08 10:13:11;;;;;;;12.50;4.60;;;19.50;79.60;;;;;;10489506;28;20119;-57
2023/10/08 10:18:13;;;;;;;24.60;5.97;;;19.60;79.60;;;;;;10488242;28;20440;-57
2023/10/08 10:23:44;;;;;;;26.48;5.65;;;19.50;79.70;;;;;;10454743;28;20098;-57
2023/10/08 10:28:45;;;;;;;16.13;3.75;;;19.70;79.60;;;;;;10486331;28;20535;-57
2023/10/08 10:33:46;;;;;;;13.43;5.47;;;19.70;79.00;;;;;;10496002;28;20032;-57
2023/10/08 10:38:49;;;;;;;16.27;4.53;;;19.90;78.80;;;;;;10495444;28;20025;-58
2023/10/08 10:43:52;;;;;;;17.73;4.40;;;20.00;79.50;;;;;;10496953;28;20063;-58
2023/10/08 10:54:20;;;;;;;16.55;5.55;;;20.20;78.80;;;;;;10496412;28;20040;-57
2023/10/08 10:59:27;;;;;;;14.47;4.00;;;20.30;78.90;;;;;;10478824;28;20024;-57
2023/10/08 11:04:31;;;;;;;15.90;3.72;;;20.40;78.90;;;;;;10495633;28;20060;-57
2023/10/08 11:09:39;;;;;;;24.30;6.05;;;20.40;78.60;;;;;;10494864;28;20020;-58
2023/10/08 11:14:46;;;;;;;17.35;4.00;;;20.40;79.10;;;;;;10494751;28;20056;-57
2023/10/08 11:19:47;;;;;;;9.43;3.70;;;20.40;79.10;;;;;;10494194;28;20510;-56
2023/10/08 11:24:48;;;;;;;12.60;3.92;;;20.40;78.60;;;;;;10493569;28;20036;-58
2023/10/08 11:30:00;;;;;;;13.75;3.80;;;20.40;78.70;;;;;;10490304;28;20047;-58
2023/10/08 11:35:15;;;;;;;12.60;4.38;;;20.40;80.00;;;;;;10477239;28;20044;-58
2023/10/08 11:40:28;;;;;;;12.45;4.28;;;20.50;80.20;;;;;;10489308;28;20050;-58
2023/10/08 11:45:38;;;;;;;12.73;4.25;;;20.40;80.20;;;;;;10490015;28;20053;-57
2023/10/08 11:50:40;;;;;;;12.15;4.75;;;20.30;80.80;;;;;;10492612;28;20550;-58
2023/10/08 11:55:42;;;;;;;16.05;6.43;;;20.30;81.50;;;;;;10492613;28;20127;-58
2023/10/08 12:00:44;;;;;;;13.75;5.07;;;20.30;80.80;;;;;;10492190;28;20028;-57
2023/10/08 12:05:49;;;;;;;10.98;3.78;;;20.40;79.90;;;;;;10491080;28;20051;-56
2023/10/08 12:10:53;;;;;;;11.02;4.72;;;20.30;79.80;;;;;;10492716;28;20039;-56
2023/10/08 12:16:12;;;;;;;10.70;3.97;;;20.40;79.60;;;;;;10486586;28;20055;-57
2023/10/08 12:21:15;;;;;;;6.35;3.38;;;20.30;79.70;;;;;;10473799;28;20020;-58
2023/10/08 12:26:16;;;;;;;14.32;4.20;;;20.40;79.60;;;;;;10490891;28;20013;-57
2023/10/08 12:31:24;;;;;;;19.02;3.53;;;20.40;79.30;;;;;;10490877;28;20020;-57
2023/10/08 12:36:26;;;;;;;5.53;3.13;;;20.40;79.60;;;;;;10487874;28;20028;-57
2023/10/08 12:41:27;;;;;;;9.63;3.45;;;20.40;80.10;;;;;;10469984;28;20028;-57
2023/10/08 12:46:30;;;;;;;12.77;3.60;;;20.40;79.40;;;;;;10487978;28;20561;-58
2023/10/08 12:51:35;;;;;;;6.95;3.03;;;20.40;79.70;;;;;;10482763;28;20055;-58
2023/10/08 12:56:44;;;;;;;8.90;3.47;;;20.50;79.50;;;;;;10488827;28;20099;-58
2023/10/08 13:01:50;;;;;;;21.60;4.53;;;20.40;79.70;;;;;;10464847;28;20516;-57
2023/10/08 13:06:52;;;;;;;10.05;2.80;;;20.40;79.40;;;;;;10491277;28;20074;-57
2023/10/08 13:12:02;;;;;;;10.50;3.10;;;20.40;78.60;;;;;;10478677;28;20475;-57
2023/10/08 13:17:03;;;;;;;10.18;3.80;;;20.50;78.00;;;;;;10490833;28;20049;-57
2023/10/08 13:22:06;;;;;;;10.15;3.30;;;20.50;78.80;;;;;;10489934;28;20036;-57
2023/10/08 13:27:07;;;;;;;11.43;3.40;;;20.20;79.40;;;;;;10489783;28;20035;-57
2023/10/08 13:32:16;;;;;;;8.77;3.47;;;20.10;79.60;;;;;;10485871;28;20028;-57
2023/10/08 13:37:18;;;;;;;7.32;2.55;;;20.00;79.80;;;;;;10489506;28;20655;-57
2023/10/08 13:42:20;;;;;;;6.63;2.58;;;20.00;79.90;;;;;;10471491;28;20032;-57
2023/10/08 13:47:25;;;;;;;6.03;3.03;;;19.90;79.80;;;;;;10489102;28;20028;-56
2023/10/08 13:52:26;;;;;;;6.30;2.38;;;19.90;79.90;;;;;;10455242;28;20032;-56
2023/10/08 13:57:27;;;;;;;5.32;2.45;;;19.90;79.70;;;;;;10488384;28;20470;-56
2023/10/08 14:02:30;;;;;;;6.65;3.08;;;19.90;79.90;;;;;;10480955;28;20029;-56
2023/10/08 14:07:31;;;;;;;9.90;3.13;;;19.90;79.80;;;;;;10493443;28;20028;-56
2023/10/08 14:12:34;;;;;;;6.28;3.13;;;19.80;79.80;;;;;;10497110;28;20020;-58
2023/10/08 14:17:42;;;;;;;3.95;2.50;;;19.80;79.70;;;;;;10496169;28;20512;-55
2023/10/08 14:22:44;;;;;;;6.93;2.45;;;19.80;79.70;;;;;;10495865;28;20033;-57
2023/10/08 14:27:51;;;;;;;5.70;2.80;;;19.80;79.70;;;;;;10495888;28;20024;-56
2023/10/08 14:32:52;;;;;;;6.80;2.40;;;19.80;79.80;;;;;;10488882;28;20024;-57
2023/10/08 14:43:15;;;;;;;6.53;2.70;;;19.70;79.70;;;;;;10481120;28;20020;-57
2023/10/08 14:48:16;;;;;;;3.58;1.70;;;19.70;79.70;;;;;;10489915;28;20419;-57
2023/10/08 14:53:17;;;;;;;5.47;2.55;;;19.70;79.70;;;;;;10477827;28;20060;-57
2023/10/08 14:58:18;;;;;;;5.47;2.15;;;19.70;79.70;;;;;;10478590;28;20033;-57
2023/10/08 15:03:20;;;;;;;6.78;2.03;;;19.70;79.70;;;;;;10473910;28;20025;-57
2023/10/08 15:08:22;;;;;;;10.75;2.53;;;19.60;79.60;;;;;;10489526;28;20039;-58
2023/10/08 15:13:24;;;;;;;12.55;3.58;;;19.70;78.90;;;;;;10494309;28;20035;-58
2023/10/08 15:18:31;;;;;;;7.80;2.78;;;19.80;79.00;;;;;;10493195;28;20052;-59
2023/10/08 15:23:32;;;;;;;9.02;3.20;;;19.90;78.90;;;;;;10482870;28;20120;-58
2023/10/08 15:28:33;;;;;;;12.57;3.22;;;19.90;79.10;;;;;;10487004;28;20029;-57
2023/10/08 15:33:33;;;;;;;15.23;4.38;;;19.90;79.10;;;;;;10483103;28;20350;-58
2023/10/08 15:38:34;;;;;;;17.65;4.28;;;19.90;78.80;;;;;;10465870;28;20037;-58
2023/10/08 15:43:35;;;;;;;9.25;3.25;;;19.80;79.00;;;;;;10479522;28;20400;-58
2023/10/08 15:48:37;;;;;;;10.48;4.22;;;19.80;78.90;;;;;;10476691;28;20115;-58
2023/10/08 15:53:39;;;;;;;17.20;8.75;;;19.90;78.10;;;;;;10483638;28;20025;-60
2023/10/08 15:58:40;;;;;;;22.80;10.43;;;19.90;77.70;;;;;;10451256;28;20040;-59
2023/10/08 16:03:41;;;;;;;15.13;7.45;;;19.90;77.90;;;;;;10483279;28;20047;-59
2023/10/08 16:08:42;;;;;;;20.38;8.48;;;19.90;77.50;;;;;;10468753;28;20029;-59
2023/10/08 16:13:43;;;;;;;16.65;7.43;;;19.90;77.40;;;;;;10485434;28;20043;-56
2023/10/08 16:18:43;;;;;;;21.02;6.85;;;20.00;78.60;;;;;;10490618;28;20102;-57
2023/10/08 16:23:44;;;;;;;16.80;6.75;;;20.10;78.50;;;;;;10446086;28;20048;-57
2023/10/08 16:28:45;;;;;;;17.55;7.15;;;20.10;78.00;;;;;;10477744;28;20031;-57
2023/10/08 16:33:49;;;;;;;9.73;4.88;;;20.10;78.30;;;;;;10459633;28;20048;-57
2023/10/08 16:38:53;;;;;;;15.80;7.63;;;20.10;78.40;;;;;;10473276;28;20041;-57
2023/10/08 16:43:54;;;;;;;18.10;7.60;;;20.10;78.80;;;;;;10472297;28;20028;-57
2023/10/08 16:48:54;;;;;;;14.80;5.55;;;20.00;78.60;;;;;;10488809;28;20076;-57
2023/10/08 16:53:55;;;;;;;13.20;7.03;;;20.00;78.80;;;;;;10490175;28;20470;-58
2023/10/08 16:58:56;;;;;;;16.17;5.53;;;20.00;78.80;;;;;;10455195;28;20044;-56
2023/10/08 17:03:57;;;;;;;11.32;5.20;;;20.10;78.70;;;;;;10489141;28;20076;-57
2023/10/08 17:08:58;;;;;;;16.23;6.07;;;20.00;79.00;;;;;;10490141;28;20055;-58
2023/10/08 17:13:58;;;;;;;11.35;5.13;;;19.90;79.00;;;;;;10490012;28;20032;-57
2023/10/08 17:18:59;;;;;;;13.05;5.88;;;19.90;79.00;;;;;;10470917;28;20102;-58
2023/10/08 17:24:00;;;;;;;10.30;5.80;;;19.90;79.10;;;;;;10486357;28;20040;-58
2023/10/08 17:29:02;;;;;;;11.15;5.28;;;19.90;79.20;;;;;;10489145;28;20024;-57
2023/10/08 17:34:03;;;;;;;14.90;5.47;;;19.90;78.90;;;;;;10482297;28;20040;-58
2023/10/08 17:39:16;;;;;;;9.82;4.72;;;19.90;78.90;;;;;;10486856;28;20029;-57
2023/10/08 17:44:17;;;;;;;13.25;6.07;;;19.90;78.70;;;;;;10477656;28;20032;-57
2023/10/08 17:49:19;;;;;;;13.63;4.75;;;19.90;79.00;;;;;;10495650;28;20103;-58
2023/10/08 17:54:20;;;;;;;8.85;4.97;;;19.80;79.20;;;;;;10495208;28;20447;-57
2023/10/08 17:59:22;;;;;;;11.15;6.63;;;19.70;79.20;;;;;;10484851;28;20036;-58
2023/10/08 18:04:25;;;;;;;8.25;4.78;;;19.70;79.80;;;;;;10494445;28;20025;-57
2023/10/08 18:09:27;;;;;;;12.73;4.88;;;19.70;79.20;;;;;;10493283;28;20085;-57
2023/10/08 18:14:28;;;;;;;8.57;4.45;;;19.80;79.40;;;;;;10489554;28;20044;-57
2023/10/08 18:19:29;;;;;;;7.93;4.65;;;19.80;79.40;;;;;;10492577;28;20037;-55
2023/10/08 18:24:30;;;;;;;9.88;4.45;;;19.80;79.10;;;;;;10477587;28;20032;-58
2023/10/08 18:29:32;;;;;;;7.28;3.72;;;19.80;79.00;;;;;;10465134;28;20021;-58
2023/10/08 18:34:34;;;;;;;10.85;4.78;;;19.80;79.20;;;;;;10494179;28;20059;-58
2023/10/08 18:39:35;;;;;;;9.15;4.45;;;19.70;79.40;;;;;;10491311;28;20029;-58
2023/10/08 18:44:36;;;;;;;6.70;4.22;;;19.70;79.30;;;;;;10490577;28;20021;-58
2023/10/08 18:49:36;;;;;;;7.80;4.05;;;19.70;79.30;;;;;;10481416;28;20036;-58
2023/10/08 18:54:39;;;;;;;10.45;3.70;;;19.70;79.50;;;;;;10491159;28;20029;-58
2023/10/08 18:59:40;;;;;;;10.75;4.65;;;19.70;79.40;;;;;;10491374;28;20021;-58
2023/10/08 19:04:42;;;;;;;11.35;4.70;;;19.70;79.40;;;;;;10493210;28;20048;-57
2023/10/08 19:09:43;;;;;;;9.13;4.88;;;19.60;79.60;;;;;;10495342;28;20439;-59
2023/10/08 19:14:44;;;;;;;7.82;3.58;;;19.60;79.70;;;;;;10494646;28;20072;-59
2023/10/08 19:19:45;;;;;;;13.50;4.47;;;19.60;79.60;;;;;;10485985;28;20503;-58
2023/10/08 19:24:45;;;;;;;11.75;4.55;;;19.60;79.60;;;;;;10494753;28;20119;-59
2023/10/08 19:29:46;;;;;;;7.60;4.15;;;19.60;79.80;;;;;;10471307;28;20025;-58
2023/10/08 19:34:47;;;;;;;9.77;4.50;;;19.60;79.70;;;;;;10470456;28;20028;-58
2023/10/08 19:39:48;;;;;;;12.73;11.00;;;19.60;79.90;;;;;;10489214;28;20029;-58
2023/10/08 19:44:50;;;;;;;7.60;5.07;;;19.70;80.10;;;;;;10489195;28;20388;-56
2023/10/08 19:49:51;;;;;;;8.75;4.90;;;19.60;79.90;;;;;;10487788;28;20033;-58
2023/10/08 19:54:51;;;;;;;10.70;5.65;;;19.60;79.90;;;;;;10468876;28;20538;-58
2023/10/08 19:59:52;;;;;;;11.70;5.50;;;19.60;79.80;;;;;;10490908;28;20480;-58
2023/10/08 20:04:53;;;;;;;8.20;4.88;;;19.60;79.90;;;;;;10492757;28;20039;-58
2023/10/08 20:09:53;;;;;;;6.63;4.80;;;19.50;79.80;;;;;;10492230;28;20028;-58
2023/10/08 20:14:54;;;;;;;10.25;4.75;;;19.50;79.80;;;;;;10491916;28;20063;-58
2023/10/08 20:19:55;;;;;;;7.93;4.95;;;19.50;79.70;;;;;;10492445;28;20077;-58
2023/10/08 20:24:56;;;;;;;9.25;4.97;;;19.50;79.80;;;;;;10491664;28;20468;-58
2023/10/08 20:29:57;;;;;;;6.85;4.78;;;19.50;79.70;;;;;;10492666;28;20025;-58
2023/10/08 20:34:59;;;;;;;6.85;4.07;;;19.50;79.70;;;;;;10488550;28;20029;-58
2023/10/08 20:39:59;;;;;;;5.78;4.43;;;19.40;79.70;;;;;;10491050;28;20033;-58
2023/10/08 20:45:07;;;;;;;7.57;4.78;;;19.40;79.70;;;;;;10491200;28;20032;-58
2023/10/08 20:50:18;;;;;;;7.93;4.18;;;19.40;79.60;;;;;;10492654;28;20407;-57
2023/10/08 20:55:26;;;;;;;9.60;4.93;;;19.40;79.60;;;;;;10491968;28;20036;-58
2023/10/08 21:00:31;;;;;;;6.33;4.37;;;19.40;79.60;;;;;;10482102;28;20055;-58
2023/10/08 21:05:37;;;;;;;5.50;4.00;;;19.40;79.60;;;;;;10491266;28;20847;-58
2023/10/08 21:10:41;;;;;;;7.82;4.30;;;19.40;79.60;;;;;;10473585;28;20513;-58
2023/10/08 21:15:42;;;;;;;6.93;4.05;;;19.40;79.60;;;;;;10490628;28;20081;-58
2023/10/08 21:20:48;;;;;;;6.40;3.60;;;19.30;79.50;;;;;;10491407;28;20031;-56
2023/10/08 21:25:48;;;;;;;5.20;3.92;;;19.30;79.50;;;;;;10491145;28;20494;-57
2023/10/08 21:30:49;;;;;;;6.40;3.97;;;19.30;79.50;;;;;;10491212;28;20142;-58
2023/10/08 21:35:51;;;;;;;6.07;3.97;;;19.30;79.50;;;;;;10491347;28;20021;-58
2023/10/08 21:40:59;;;;;;;6.32;3.90;;;19.30;79.50;;;;;;10491256;28;20449;-57
2023/10/08 21:46:00;;;;;;;5.90;4.10;;;19.30;79.50;;;;;;10490660;28;20036;-58
2023/10/08 21:51:01;;;;;;;8.75;4.00;;;19.30;79.40;;;;;;10490877;28;20024;-58
2023/10/08 21:56:06;;;;;;;5.32;3.50;;;19.30;79.30;;;;;;10490414;28;20089;-58
2023/10/08 22:01:09;;;;;;;5.43;3.25;;;19.30;79.40;;;;;;10490945;28;20051;-58
2023/10/08 22:06:10;;;;;;;4.97;3.53;;;19.30;79.40;;;;;;10490323;28;20052;-58
2023/10/08 22:11:12;;;;;;;6.43;3.90;;;19.30;79.30;;;;;;10491100;28;20035;-59
2023/10/08 22:16:17;;;;;;;4.80;3.88;;;19.20;79.40;;;;;;10490356;28;20476;-57
2023/10/08 22:21:18;;;;;;;7.25;3.60;;;19.20;79.30;;;;;;10490233;28;20360;-58
2023/10/08 22:26:23;;;;;;;6.30;3.80;;;19.20;79.30;;;;;;10491419;28;20098;-58
2023/10/08 22:31:24;;;;;;;6.30;4.03;;;19.20;79.30;;;;;;10497445;28;20037;-58
2023/10/08 22:41:43;;;;;;;6.30;3.60;;;19.20;79.20;;;;;;10497805;28;20037;-58
2023/10/08 22:46:44;;;;;;;8.55;3.45;;;19.20;79.20;;;;;;10496668;28;20059;-58
2023/10/08 22:51:50;;;;;;;4.68;3.40;;;19.20;79.20;;;;;;10496906;28;20498;-58
2023/10/08 22:56:50;;;;;;;4.93;3.58;;;19.20;79.10;;;;;;10496261;28;20028;-58
2023/10/08 23:01:53;;;;;;;5.25;3.67;;;19.20;79.20;;;;;;10496462;28;20055;-58
2023/10/08 23:06:54;;;;;;;5.00;3.60;;;19.20;79.10;;;;;;10496021;28;20103;-58
2023/10/08 23:11:55;;;;;;;6.55;3.58;;;19.10;79.10;;;;;;10495928;28;20029;-58
2023/10/08 23:16:56;;;;;;;4.10;3.47;;;19.20;79.10;;;;;;10494979;28;20396;-58
2023/10/08 23:21:57;;;;;;;6.53;4.80;;;19.20;79.10;;;;;;10495525;28;20122;-58
2023/10/08 23:26:58;;;;;;;6.03;3.33;;;19.10;79.10;;;;;;10495585;28;20675;-58
2023/10/08 23:31:59;;;;;;;5.07;4.00;;;19.10;79.60;;;;;;10495843;28;20024;-58
2023/10/08 23:37:21;;;;;;;5.85;3.75;;;19.10;79.10;;;;;;10494505;28;20665;-58
2023/10/08 23:42:24;;;;;;;4.68;3.35;;;19.10;79.20;;;;;;10494653;28;20064;-56
2023/10/08 23:47:28;;;;;;;5.50;3.40;;;19.10;79.10;;;;;;10494494;28;20032;-58
2023/10/08 23:52:32;;;;;;;5.63;4.00;;;19.10;79.10;;;;;;10494603;28;20033;-58
2023/10/08 23:57:46;;;;;;;7.47;3.53;;;19.10;79.10;;;;;;10476665;28;20415;-58
